Terminal Aerodrome Forecast
Issued by NWS

Home | Current Version | Previous Version | Text Only | Print | Product List | Glossary On
Versions: 1 2 3 4 5 6 7 8 9 10 11 12 13 14 15 16 17 18
000
FTUS43 KILX 040526
TAFDEC
TAF
KDEC 040526Z 0406/0506 18011KT P6SM VCSH BKN120
     FM041000 19010KT P6SM VCSH SCT060 BKN100
     FM041400 22012KT P6SM SCT060 BKN100
     FM050000 19008KT P6SM BKN100=

USA.gov is the U.S. government's official web portal to all federal, state and local government web resources and services.